Time;durP1;ratioP1;P1;durP2;ratioP2;P2;SDS_P1;SDS_P2;PMS_P1;PMS_P2;Temp;Humidity;BMP_temperature;BMP_pressure;BME280_temperature;BME280_humidity;BME280_pressure;Samples;Min_cycle;Max_cycle;Signal;HPM_P1;HPM_P2
2021/11/01 00:01:06;;;;;;;19.17;14.20;;;;;;;9.15;nan;99491.34;4911859;29;20044;-82
2021/11/01 00:03:33;;;;;;;19.73;13.85;;;;;;;9.20;nan;99480.66;4924850;29;20046;-83
2021/11/01 00:06:00;;;;;;;21.40;14.80;;;;;;;9.14;nan;99471.16;4917727;29;20046;-83
2021/11/01 00:08:27;;;;;;;21.75;15.35;;;;;;;9.19;nan;99478.94;4914247;29;20113;-84
2021/11/01 00:10:57;;;;;;;20.38;14.98;;;;;;;9.23;nan;99476.13;4927037;29;20054;-82
2021/11/01 00:13:24;;;;;;;21.75;15.50;;;;;;;9.24;nan;99474.34;4920360;28;20524;-83
2021/11/01 00:15:51;;;;;;;25.13;16.65;;;;;;;9.19;nan;99469.25;4921596;29;20069;-82
2021/11/01 00:18:18;;;;;;;20.08;14.43;;;;;;;9.51;nan;99454.97;4931680;28;20298;-82
2021/11/01 00:20:45;;;;;;;21.58;13.25;;;;;;;9.39;nan;99452.75;4933959;29;20032;-82
2021/11/01 00:23:12;;;;;;;23.30;14.85;;;;;;;9.39;nan;99455.38;4931663;29;20028;-84
2021/11/01 00:25:39;;;;;;;21.05;14.32;;;;;;;9.36;nan;99468.69;4921620;29;20051;-82
2021/11/01 00:28:06;;;;;;;19.60;14.15;;;;;;;9.31;nan;99455.63;4921517;29;20061;-84
2021/11/01 00:30:33;;;;;;;23.63;15.00;;;;;;;9.34;nan;99451.19;4905420;29;20043;-81
2021/11/01 00:33:00;;;;;;;23.55;15.13;;;;;;;9.32;nan;99451.22;4937344;29;20528;-85
2021/11/01 00:35:27;;;;;;;19.42;14.07;;;;;;;9.16;nan;99460.56;4923385;29;20036;-83
2021/11/01 00:37:54;;;;;;;21.73;14.32;;;;;;;9.24;nan;99456.75;4935747;29;20576;-82
2021/11/01 00:40:21;;;;;;;21.98;14.70;;;;;;;9.17;nan;99444.75;4920381;29;20407;-82
2021/11/01 00:42:51;;;;;;;23.35;14.18;;;;;;;9.14;nan;99459.78;4937238;29;20045;-83
2021/11/01 00:45:18;;;;;;;20.33;14.70;;;;;;;9.11;nan;99451.97;4933005;29;20039;-82
2021/11/01 00:47:45;;;;;;;21.95;14.85;;;;;;;9.08;nan;99454.69;4902690;28;20432;-84
2021/11/01 00:50:12;;;;;;;20.13;14.18;;;;;;;8.98;nan;99452.38;4922902;29;20416;-82
2021/11/01 00:52:39;;;;;;;21.83;15.27;;;;;;;9.05;nan;99457.44;4917382;29;20035;-83
2021/11/01 00:55:08;;;;;;;20.27;14.18;;;;;;;8.94;nan;99447.28;4916033;29;20043;-82
2021/11/01 00:57:36;;;;;;;19.77;13.48;;;;;;;8.97;nan;99449.78;4911764;29;20044;-82
2021/11/01 01:00:04;;;;;;;24.33;15.57;;;;;;;8.92;nan;99447.34;4909375;29;20047;-83
2021/11/01 01:02:34;;;;;;;20.95;14.70;;;;;;;8.86;nan;99438.75;4912794;29;20425;-84
2021/11/01 01:05:04;;;;;;;21.50;15.50;;;;;;;8.91;nan;99428.91;4927820;28;20049;-82
2021/11/01 01:07:31;;;;;;;20.75;14.50;;;;;;;8.76;nan;99432.94;4903644;29;20035;-83
2021/11/01 01:10:01;;;;;;;21.33;14.40;;;;;;;8.69;nan;99431.41;4917187;29;20046;-81
2021/11/01 01:12:27;;;;;;;25.83;15.90;;;;;;;8.70;nan;99423.47;4898838;29;20047;-82
2021/11/01 01:15:03;;;;;;;22.48;14.82;;;;;;;8.76;nan;99417.16;4919465;29;20048;-81
2021/11/01 01:17:31;;;;;;;23.67;16.35;;;;;;;8.66;nan;99418.31;4923686;29;20043;-83
2021/11/01 01:20:08;;;;;;;25.27;15.65;;;;;;;8.57;nan;99406.31;4917699;29;20048;-81
2021/11/01 01:22:36;;;;;;;22.00;15.27;;;;;;;8.58;nan;99407.22;4913809;29;20497;-82
2021/11/01 01:27:48;;;;;;;21.20;14.90;;;;;;;8.51;nan;99388.13;4927197;29;20044;-82
2021/11/01 01:30:15;;;;;;;22.48;16.27;;;;;;;8.59;nan;99398.41;4894353;29;20524;-82
2021/11/01 01:32:43;;;;;;;23.95;16.35;;;;;;;8.42;nan;99378.75;4911813;29;20601;-82
2021/11/01 01:35:12;;;;;;;23.70;15.80;;;;;;;8.50;nan;99385.53;4913735;29;20047;-83
2021/11/01 01:37:40;;;;;;;22.58;14.77;;;;;;;8.45;nan;99378.63;4913328;29;20036;-82
2021/11/01 01:40:08;;;;;;;23.88;15.55;;;;;;;8.43;nan;99382.25;4927580;29;20050;-81
2021/11/01 01:42:36;;;;;;;22.30;15.13;;;;;;;8.40;nan;99374.44;4918964;29;20043;-82
2021/11/01 01:45:07;;;;;;;24.45;16.30;;;;;;;8.40;nan;99374.44;4915908;29;20054;-82
2021/11/01 01:47:36;;;;;;;23.50;15.63;;;;;;;8.49;nan;99376.75;4934464;29;20036;-83
2021/11/01 01:50:04;;;;;;;22.48;15.95;;;;;;;8.49;nan;99365.38;4922111;29;20047;-82
2021/11/01 01:52:31;;;;;;;23.73;17.10;;;;;;;8.43;nan;99361.19;4925960;29;20039;-81
2021/11/01 01:54:58;;;;;;;25.47;17.10;;;;;;;8.43;nan;99351.53;4912590;29;20050;-82
2021/11/01 01:57:25;;;;;;;24.95;16.13;;;;;;;8.40;nan;99367.38;4913064;29;20087;-82
2021/11/01 01:59:53;;;;;;;23.63;16.30;;;;;;;8.42;nan;99380.53;4931949;28;20469;-83
2021/11/01 02:02:20;;;;;;;24.25;17.58;;;;;;;8.30;nan;99378.22;4917781;29;20413;-82
2021/11/01 02:04:48;;;;;;;25.17;16.57;;;;;;;8.30;nan;99380.88;4917909;29;20043;-83
2021/11/01 02:07:35;;;;;;;22.80;14.95;;;;;;;8.22;nan;99388.13;4924751;29;20043;-83
2021/11/01 02:10:08;;;;;;;24.00;16.83;;;;;;;8.17;nan;99373.38;4936974;29;20070;-82
2021/11/01 02:12:41;;;;;;;24.30;15.60;;;;;;;8.28;nan;99369.53;4917058;29;20054;-83
2021/11/01 02:15:17;;;;;;;24.58;15.52;;;;;;;8.30;nan;99358.03;4924145;29;20043;-82
2021/11/01 02:17:46;;;;;;;21.87;16.03;;;;;;;8.18;nan;99348.78;4926737;29;20038;-81
2021/11/01 02:20:18;;;;;;;23.50;16.30;;;;;;;8.22;nan;99353.94;4914506;29;20383;-81
2021/11/01 02:22:57;;;;;;;23.65;16.40;;;;;;;8.17;nan;99354.94;4929230;29;20054;-83
2021/11/01 02:25:40;;;;;;;23.80;15.90;;;;;;;8.15;nan;99342.72;4943514;28;20054;-81
2021/11/01 02:28:14;;;;;;;26.63;17.17;;;;;;;8.24;nan;99345.09;4927385;29;20050;-83
2021/11/01 02:30:43;;;;;;;22.13;16.15;;;;;;;8.13;nan;99342.78;4920060;29;20042;-82
2021/11/01 02:33:12;;;;;;;24.30;16.48;;;;;;;8.13;nan;99339.31;4916725;29;20038;-84
2021/11/01 02:35:39;;;;;;;25.87;16.53;;;;;;;8.10;nan;99339.41;4915126;29;20047;-82
2021/11/01 02:38:06;;;;;;;23.13;15.90;;;;;;;8.00;nan;99325.69;4919436;29;20047;-82
2021/11/01 02:40:34;;;;;;;24.63;16.07;;;;;;;8.18;nan;99326.88;4945416;28;20045;-82
2021/11/01 02:43:01;;;;;;;24.00;15.40;;;;;;;8.16;nan;99323.44;4934168;29;20128;-81
2021/11/01 02:45:28;;;;;;;23.20;16.20;;;;;;;8.06;nan;99316.72;4890618;29;20039;-83
2021/11/01 02:47:55;;;;;;;24.10;16.37;;;;;;;8.03;nan;99309.81;4917714;29;20046;-82
2021/11/01 02:50:22;;;;;;;23.07;18.17;;;;;;;8.04;nan;99310.66;4948188;29;20039;-82
2021/11/01 02:52:49;;;;;;;24.27;17.43;;;;;;;8.03;nan;99315.06;4931948;29;20036;-82
2021/11/01 02:55:16;;;;;;;25.60;16.70;;;;;;;8.02;nan;99310.72;4917401;29;20497;-82
2021/11/01 02:57:44;;;;;;;25.30;17.23;;;;;;;8.05;nan;99301.84;4927538;29;20504;-81
2021/11/01 03:00:12;;;;;;;25.50;16.50;;;;;;;7.97;nan;99293.34;4885478;28;20054;-82
2021/11/01 03:02:39;;;;;;;27.83;17.10;;;;;;;7.98;nan;99290.66;4952497;29;20039;-82
2021/11/01 03:05:12;;;;;;;22.67;15.43;;;;;;;8.06;nan;99295.69;4915527;29;20039;-82
2021/11/01 03:07:40;;;;;;;27.23;17.43;;;;;;;8.04;nan;99300.13;4944359;23;20043;-80
2021/11/01 03:10:08;;;;;;;23.50;16.60;;;;;;;7.91;nan;99307.56;4947482;28;20039;-80
2021/11/01 03:12:38;;;;;;;26.20;17.37;;;;;;;7.81;nan;99306.09;4938844;29;20050;-79
2021/11/01 03:15:07;;;;;;;24.40;16.77;;;;;;;7.77;nan;99307.13;4921906;29;20040;-80
2021/11/01 03:17:39;;;;;;;26.07;16.60;;;;;;;7.79;nan;99297.41;4928356;29;20054;-80
2021/11/01 03:20:15;;;;;;;24.50;16.43;;;;;;;7.75;nan;99291.41;4921374;29;20044;-80
2021/11/01 03:22:46;;;;;;;24.07;15.73;;;;;;;7.74;nan;99294.94;4927662;29;20399;-79
2021/11/01 03:25:26;;;;;;;24.33;16.53;;;;;;;7.76;nan;99290.50;4900846;29;20035;-80
2021/11/01 03:27:54;;;;;;;26.03;17.37;;;;;;;7.73;nan;99287.94;4922808;29;20386;-79
2021/11/01 03:30:22;;;;;;;24.43;16.87;;;;;;;7.73;nan;99281.81;4917479;29;20043;-80
2021/11/01 03:32:50;;;;;;;25.03;17.03;;;;;;;7.75;nan;99282.66;4916649;29;20050;-80
2021/11/01 03:35:19;;;;;;;23.10;17.43;;;;;;;7.73;nan;99287.09;4922124;29;20039;-79
2021/11/01 03:37:50;;;;;;;24.87;16.87;;;;;;;7.77;nan;99286.94;4908207;29;20040;-79
2021/11/01 03:40:19;;;;;;;27.87;17.97;;;;;;;7.75;nan;99286.16;4919337;29;20046;-79
2021/11/01 03:42:47;;;;;;;25.80;17.17;;;;;;;7.65;nan;99287.34;4919316;29;20039;-79
2021/11/01 03:45:15;;;;;;;22.57;16.27;;;;;;;7.62;nan;99287.41;4931688;29;20046;-79
2021/11/01 03:47:46;;;;;;;24.83;16.57;;;;;;;7.57;nan;99291.97;4904855;29;20032;-80
2021/11/01 03:50:29;;;;;;;24.27;17.33;;;;;;;7.57;nan;99286.72;4912412;29;20043;-80
2021/11/01 03:52:56;;;;;;;23.63;16.67;;;;;;;7.55;nan;99288.50;4938704;29;20049;-79
2021/11/01 03:55:28;;;;;;;28.60;18.13;;;;;;;7.63;nan;99289.13;4924042;29;20035;-80
2021/11/01 03:57:57;;;;;;;25.07;15.77;;;;;;;7.64;nan;99298.75;4904103;29;20051;-79
2021/11/01 04:00:27;;;;;;;24.20;16.57;;;;;;;7.56;nan;99298.97;4902771;29;20046;-79
2021/11/01 04:02:55;;;;;;;24.37;15.87;;;;;;;7.47;nan;99299.25;4916878;29;20102;-80
2021/11/01 04:05:22;;;;;;;27.37;17.00;;;;;;;7.46;nan;99297.53;4932813;29;20123;-80
2021/11/01 04:07:49;;;;;;;25.67;16.07;;;;;;;7.41;nan;99293.34;4930252;29;20122;-80
2021/11/01 04:10:16;;;;;;;24.03;16.77;;;;;;;7.41;nan;99306.47;4931955;29;20461;-80
2021/11/01 04:12:43;;;;;;;25.50;16.70;;;;;;;7.35;nan;99315.38;4939700;29;20091;-80
2021/11/01 04:15:47;;;;;;;24.47;15.67;;;;;;;7.28;nan;99293.66;4922992;29;20136;-80
2021/11/01 04:18:05;;;;;;;24.43;16.53;;;;;;;7.33;nan;99299.66;4930305;29;20127;-80
2021/11/01 04:20:50;;;;;;;31.20;17.57;;;;;;;7.31;nan;99292.72;4925220;29;20050;-80
2021/11/01 04:23:19;;;;;;;26.03;17.23;;;;;;;7.48;nan;99286.97;4910702;29;20127;-80
2021/11/01 04:25:45;;;;;;;27.23;17.20;;;;;;;7.37;nan;99296.94;4896270;29;20039;-80
2021/11/01 04:28:13;;;;;;;23.90;17.37;;;;;;;7.31;nan;99288.34;4924491;29;20040;-80
2021/11/01 04:30:42;;;;;;;28.27;18.30;;;;;;;7.45;nan;99301.06;4930345;29;20188;-80
2021/11/01 04:33:14;;;;;;;29.20;19.27;;;;;;;7.39;nan;99311.75;4927373;28;20045;-80
2021/11/01 04:35:41;;;;;;;24.47;16.67;;;;;;;7.29;nan;99305.91;4924442;28;20118;-79
2021/11/01 04:38:27;;;;;;;28.37;16.90;;;;;;;7.27;nan;99315.59;4897894;29;20107;-79
2021/11/01 04:52:57;;;;;;;26.93;17.30;;;;;;;7.29;nan;99313.78;4946642;29;20053;-80
2021/11/01 04:54:24;;;;;;;27.90;18.13;;;;;;;7.18;nan;99307.97;4929861;29;20039;-79
2021/11/01 04:56:51;;;;;;;26.20;17.73;;;;;;;7.17;nan;99306.25;4928241;29;20142;-80
2021/11/01 04:59:20;;;;;;;28.63;18.97;;;;;;;7.22;nan;99308.75;4917009;29;20062;-79
2021/11/01 05:01:51;;;;;;;25.47;16.70;;;;;;;7.21;nan;99299.16;4929917;29;20032;-79
2021/11/01 05:04:22;;;;;;;30.83;19.67;;;;;;;7.27;nan;99296.34;4925168;29;20039;-79
2021/11/01 05:06:51;;;;;;;26.03;17.17;;;;;;;7.19;nan;99298.34;4913935;29;20071;-79
2021/11/01 05:09:24;;;;;;;26.17;18.00;;;;;;;7.21;nan;99304.41;4919623;29;20043;-78
2021/11/01 05:14:21;;;;;;;28.00;18.10;;;;;;;7.17;nan;99310.66;4937754;28;20041;-79
2021/11/01 05:16:56;;;;;;;29.73;18.20;;;;;;;7.19;nan;99304.44;4923299;29;20040;-79
2021/11/01 05:19:29;;;;;;;29.20;18.60;;;;;;;7.23;nan;99306.09;4938164;29;20045;-79
2021/11/01 05:22:06;;;;;;;26.93;19.00;;;;;;;7.21;nan;99313.13;4939000;29;20150;-79
2021/11/01 05:24:40;;;;;;;25.87;17.97;;;;;;;7.24;nan;99313.06;4940338;29;20488;-79
2021/11/01 05:29:50;;;;;;;27.97;17.50;;;;;;;7.27;nan;99312.09;4926273;29;19923;-79
2021/11/01 05:32:21;;;;;;;31.30;19.40;;;;;;;7.26;nan;99316.50;4939436;29;20047;-80
2021/11/01 05:34:48;;;;;;;27.77;19.10;;;;;;;7.29;nan;99310.28;4954062;28;20039;-79
2021/11/01 05:37:15;;;;;;;29.53;19.77;;;;;;;7.34;nan;99318.91;4916510;29;20043;-79
2021/11/01 05:39:42;;;;;;;28.40;19.53;;;;;;;7.32;nan;99318.97;4923470;29;20035;-79
2021/11/01 05:42:10;;;;;;;27.13;18.23;;;;;;;7.30;nan;99323.38;4909854;29;20419;-79
2021/11/01 05:44:37;;;;;;;31.90;20.87;;;;;;;7.32;nan;99324.22;4921986;29;20045;-79
2021/11/01 05:47:06;;;;;;;31.83;19.77;;;;;;;7.33;nan;99325.06;4923475;29;20047;-80
2021/11/01 05:49:37;;;;;;;29.10;19.33;;;;;;;7.43;nan;99337.03;4911701;29;20688;-79
2021/11/01 05:52:08;;;;;;;29.57;19.53;;;;;;;7.49;nan;99320.25;4936321;29;20047;-80
2021/11/01 05:54:35;;;;;;;29.53;19.20;;;;;;;7.49;nan;99336.00;4918665;29;20035;-79
2021/11/01 05:57:31;;;;;;;33.07;19.20;;;;;;;7.49;nan;99333.38;4921162;29;20051;-80
2021/11/01 06:00:07;;;;;;;27.53;18.77;;;;;;;7.53;nan;99327.13;4937342;28;20040;-79
2021/11/01 06:02:44;;;;;;;30.07;18.20;;;;;;;7.48;nan;99326.38;4923423;29;20047;-79
2021/11/01 06:10:51;;;;;;;28.83;19.73;;;;;;;7.62;nan;99335.59;4920355;29;20044;-79
2021/11/01 06:13:51;;;;;;;29.33;20.37;;;;;;;7.69;nan;99336.28;4935469;28;20049;-79
2021/11/01 06:16:11;;;;;;;29.67;19.13;;;;;;;7.75;nan;99329.97;4918405;29;20063;-80
2021/11/01 06:18:40;;;;;;;31.83;19.63;;;;;;;7.94;nan;99336.38;4949698;28;20045;-79
2021/11/01 06:21:14;;;;;;;30.73;19.53;;;;;;;7.96;nan;99331.94;4957371;28;20062;-79
2021/11/01 06:23:46;;;;;;;28.57;19.37;;;;;;;7.97;nan;99330.16;4942311;29;21035;-79
2021/11/01 06:26:14;;;;;;;29.07;19.30;;;;;;;8.15;nan;99329.59;4919248;29;20052;-79
2021/11/01 06:28:44;;;;;;;32.37;20.37;;;;;;;8.23;nan;99330.19;4920215;29;20054;-79
2021/11/01 06:31:14;;;;;;;29.77;20.05;;;;;;;8.38;nan;99347.31;4918720;29;20050;-78
2021/11/01 06:42:08;;;;;;;28.13;18.70;;;;;;;8.45;nan;99390.94;4903192;29;20056;-79
2021/11/01 06:50:17;;;;;;;30.20;19.80;;;;;;;8.73;nan;99394.38;4938164;29;20058;-79
2021/11/01 07:14:09;;;;;;;27.70;19.17;;;;;;;8.94;nan;99408.63;4930237;28;20573;-79
2021/11/01 07:38:57;;;;;;;26.88;18.10;;;;;;;9.28;nan;99442.59;4965100;28;20099;-80
2021/11/01 08:25:49;;;;;;;27.83;17.27;;;;;;;9.99;nan;99477.81;4957166;28;20474;-79
2021/11/01 08:28:34;;;;;;;24.88;18.27;;;;;;;10.08;nan;99481.91;4942137;28;20039;-79
2021/11/01 08:47:47;;;;;;;32.70;20.10;;;;;;;10.45;nan;99499.91;4924026;29;20050;-78
2021/11/01 09:20:05;;;;;;;26.33;18.25;;;;;;;11.33;nan;99531.59;4933451;29;20405;-80
2021/11/01 09:23:03;;;;;;;28.35;17.88;;;;;;;11.25;nan;99535.41;4933291;29;20050;-80
2021/11/01 09:28:18;;;;;;;26.10;19.27;;;;;;;11.27;nan;99538.88;4919544;29;20054;-80
2021/11/01 09:36:43;;;;;;;29.95;18.48;;;;;;;11.13;nan;99554.44;4943059;29;20046;-79
2021/11/01 09:41:56;;;;;;;27.05;17.23;;;;;;;11.09;nan;99563.41;4937645;29;20457;-79
2021/11/01 09:44:26;;;;;;;28.50;19.05;;;;;;;11.11;nan;99574.81;4893201;29;20111;-80
2021/11/01 09:46:57;;;;;;;25.67;17.45;;;;;;;11.20;nan;99569.13;4905826;29;20405;-80
2021/11/01 09:49:25;;;;;;;26.17;17.33;;;;;;;11.23;nan;99571.66;4920693;29;20044;-79
2021/11/01 09:51:55;;;;;;;22.92;16.38;;;;;;;11.16;nan;99572.81;4912484;29;20142;-79
2021/11/01 09:54:27;;;;;;;23.52;17.27;;;;;;;11.22;nan;99584.94;4907580;29;20139;-79
2021/11/01 09:57:05;;;;;;;25.65;18.23;;;;;;;11.39;nan;99579.81;4927893;29;20044;-79
2021/11/01 09:59:40;;;;;;;25.48;18.00;;;;;;;11.34;nan;99579.13;4920214;29;20047;-80
2021/11/01 10:02:10;;;;;;;26.33;17.50;;;;;;;11.43;nan;99576.09;4920989;29;20050;-80
2021/11/01 10:04:40;;;;;;;25.63;17.52;;;;;;;11.35;nan;99570.31;4888569;29;20047;-80
2021/11/01 10:09:56;;;;;;;26.02;17.33;;;;;;;11.43;nan;99560.25;4920398;29;20049;-80
2021/11/01 10:12:30;;;;;;;25.33;17.58;;;;;;;11.51;nan;99555.50;4936761;29;20048;-80
2021/11/01 10:17:40;;;;;;;22.42;16.13;;;;;;;11.57;nan;99559.69;1368265;23;20224;-80
2021/11/01 10:20:20;;;;;;;25.33;17.05;;;;;;;11.65;nan;99562.88;4952645;28;20126;-81
2021/11/01 10:22:47;;;;;;;26.42;17.65;;;;;;;11.70;nan;99568.84;4916322;29;20040;-80
2021/11/01 10:25:17;;;;;;;23.00;17.35;;;;;;;11.68;nan;99575.09;4902448;29;20047;-80
2021/11/01 10:27:51;;;;;;;20.65;15.18;;;;;;;11.76;nan;99567.69;4934861;29;20468;-81
2021/11/01 10:30:32;;;;;;;20.83;14.85;;;;;;;11.66;nan;99561.94;4902792;29;20046;-81
2021/11/01 10:33:03;;;;;;;22.75;15.07;;;;;;;11.62;nan;99552.41;4919688;29;20047;-83
2021/11/01 10:35:33;;;;;;;21.30;15.50;;;;;;;11.56;nan;99552.66;4931818;29;20039;-83
2021/11/01 10:38:11;;;;;;;24.45;15.88;;;;;;;11.62;nan;99544.47;4903870;29;20452;-81
2021/11/01 10:44:02;;;;;;;19.98;14.15;;;;;;;11.64;nan;99544.41;4885116;29;20040;-80
2021/11/01 11:14:31;;;;;;;19.70;11.90;;;;;;;11.84;nan;99562.97;4954059;28;20106;-81
2021/11/01 11:17:09;;;;;;;19.23;12.77;;;;;;;11.85;nan;99567.31;4901823;29;20115;-81
2021/11/01 11:20:03;;;;;;;21.88;13.15;;;;;;;11.88;nan;99556.63;4901970;29;20036;-82
2021/11/01 11:28:06;;;;;;;18.40;13.20;;;;;;;12.02;nan;99574.53;4907567;29;20581;-80
2021/11/01 11:47:47;;;;;;;17.83;11.13;;;;;;;12.39;nan;99589.66;4916151;29;20107;-83
2021/11/01 11:50:21;;;;;;;17.33;12.65;;;;;;;12.44;nan;99578.84;4950086;29;20123;-84
2021/11/01 11:52:48;;;;;;;17.08;12.40;;;;;;;12.43;nan;99579.78;4907808;29;20573;-84
2021/11/01 11:55:22;;;;;;;18.58;14.23;;;;;;;12.42;nan;99576.28;4921434;29;20119;-83
2021/11/01 11:57:57;;;;;;;16.65;11.02;;;;;;;12.39;nan;99581.72;4907796;29;20107;-82
2021/11/01 12:00:26;;;;;;;16.77;11.20;;;;;;;12.48;nan;99585.75;4906304;29;20123;-82
2021/11/01 12:03:08;;;;;;;20.88;10.95;;;;;;;12.55;nan;99577.44;4905090;29;20116;-81
2021/11/01 12:05:39;;;;;;;13.27;9.45;;;;;;;12.60;nan;99571.94;4891197;29;20115;-84
2021/11/01 12:08:33;;;;;;;13.65;8.98;;;;;;;12.59;nan;99572.84;4915782;29;20576;-83
2021/11/01 12:19:18;;;;;;;13.52;8.50;;;;;;;12.70;nan;99567.94;4920359;29;20116;-84
2021/11/01 12:21:48;;;;;;;12.52;7.65;;;;;;;12.77;nan;99561.41;4891114;29;20119;-82
2021/11/01 12:24:27;;;;;;;18.33;8.55;;;;;;;12.73;nan;99551.03;4930459;29;20115;-81
2021/11/01 12:27:03;;;;;;;10.20;7.45;;;;;;;12.73;nan;99558.97;4910256;29;20101;-83
2021/11/01 12:29:32;;;;;;;9.98;6.78;;;;;;;12.68;nan;99560.03;4923735;29;20107;-81
2021/11/01 12:32:08;;;;;;;10.50;7.00;;;;;;;12.59;nan;99556.97;4924225;29;20556;-82
2021/11/01 12:34:46;;;;;;;14.25;7.63;;;;;;;12.50;nan;99537.06;4908200;29;20126;-83
2021/11/01 12:37:18;;;;;;;12.73;8.02;;;;;;;12.53;nan;99550.19;4947602;29;20111;-82
2021/11/01 12:39:55;;;;;;;10.60;6.80;;;;;;;12.50;nan;99544.16;4904489;29;20136;-81
2021/11/01 12:48:16;;;;;;;11.23;7.47;;;;;;;12.51;nan;99537.91;4944365;29;20118;-81
2021/11/01 12:59:45;;;;;;;10.35;6.22;;;;;;;12.49;nan;99568.91;4903583;29;20131;-81
2021/11/01 13:02:34;;;;;;;8.43;5.72;;;;;;;12.38;nan;99580.88;4903795;29;20462;-81
2021/11/01 13:05:06;;;;;;;10.40;5.93;;;;;;;12.46;nan;99577.00;4902656;29;20055;-81
2021/11/01 13:19:16;;;;;;;7.80;5.32;;;;;;;12.41;nan;99558.66;4927055;29;20044;-82
2021/11/01 13:24:34;;;;;;;7.82;5.00;;;;;;;12.40;nan;99575.50;4918518;29;20045;-81
2021/11/01 13:27:13;;;;;;;6.47;4.65;;;;;;;12.35;nan;99573.03;4900020;29;20048;-81
2021/11/01 13:37:57;;;;;;;8.27;4.93;;;;;;;12.13;nan;99589.97;4935251;29;20032;-81
2021/11/01 13:40:24;;;;;;;11.38;5.72;;;;;;;12.17;nan;99575.66;4919021;29;20046;-81
2021/11/01 13:42:56;;;;;;;9.65;5.63;;;;;;;12.15;nan;99569.56;4935010;29;20043;-83
2021/11/01 13:45:23;;;;;;;8.40;5.40;;;;;;;12.08;nan;99571.63;4918379;29;20048;-81
2021/11/01 13:47:53;;;;;;;10.50;6.22;;;;;;;12.10;nan;99562.69;4918954;29;20646;-81
2021/11/01 13:50:25;;;;;;;10.07;6.93;;;;;;;12.14;nan;99570.50;4934413;29;20043;-81
2021/11/01 13:53:10;;;;;;;8.00;6.78;;;;;;;12.13;nan;99574.09;4920214;29;20038;-81
2021/11/01 13:55:52;;;;;;;8.65;6.85;;;;;;;12.12;nan;99570.59;4918596;29;20413;-81
2021/11/01 14:14:59;;;;;;;10.88;6.45;;;;;;;11.83;nan;99553.31;4920105;29;20044;-82
2021/11/01 15:00:22;;;;;;;12.63;7.13;;;;;;;11.16;nan;99580.75;4933080;29;20118;-83
2021/11/01 15:10:57;;;;;;;10.95;7.28;;;;;;;11.01;nan;99581.34;4910495;29;20138;-81
2021/11/01 15:16:16;;;;;;;10.15;7.03;;;;;;;10.99;nan;99593.75;4944063;28;20419;-83
2021/11/01 15:18:59;;;;;;;12.05;7.95;;;;;;;10.94;nan;99603.69;4920141;29;20035;-81
2021/11/01 15:24:27;;;;;;;11.32;7.35;;;;;;;10.88;nan;99596.84;4962625;28;20065;-81
2021/11/01 15:30:59;;;;;;;13.95;7.72;;;;;;;10.78;nan;99600.75;4941560;29;20050;-82
2021/11/01 16:18:37;;;;;;;9.57;4.85;;;;;;;10.49;nan;99607.13;4906458;29;20043;-81
2021/11/01 16:21:04;;;;;;;10.50;5.32;;;;;;;10.56;nan;99600.69;4926671;28;20496;-80
2021/11/01 16:23:38;;;;;;;8.05;5.40;;;;;;;10.51;nan;99605.31;4935449;28;20057;-80
2021/11/01 16:28:45;;;;;;;7.70;5.15;;;;;;;10.43;nan;99605.59;4932874;29;20039;-80
2021/11/01 16:31:28;;;;;;;7.80;4.88;;;;;;;10.37;nan;99605.78;4913333;29;20496;-80
2021/11/01 16:34:00;;;;;;;7.35;5.30;;;;;;;10.45;nan;99607.31;4945357;28;20071;-80
2021/11/01 16:36:48;;;;;;;7.15;4.28;;;;;;;10.40;nan;99604.81;4931230;29;20053;-84
2021/11/01 16:39:16;;;;;;;7.22;4.82;;;;;;;10.39;nan;99606.59;4935057;29;20388;-80
2021/11/01 16:41:47;;;;;;;8.80;5.25;;;;;;;10.35;nan;99612.91;4932933;29;20039;-81
2021/11/01 16:44:20;;;;;;;6.20;4.32;;;;;;;10.35;nan;99612.91;4917427;28;20466;-81
2021/11/01 16:46:49;;;;;;;7.50;4.18;;;;;;;10.35;nan;99622.63;4905949;29;20276;-84
2021/11/01 16:49:17;;;;;;;6.00;4.22;;;;;;;10.35;nan;99627.91;4923577;29;20050;-83
2021/11/01 16:51:45;;;;;;;8.90;4.55;;;;;;;10.30;nan;99625.41;4939546;29;20039;-85
2021/11/01 16:54:15;;;;;;;9.00;4.93;;;;;;;10.33;nan;99630.56;4933488;29;20051;-81
2021/11/01 16:57:12;;;;;;;7.25;4.43;;;;;;;10.33;nan;99633.22;4929736;28;20038;-81
2021/11/01 17:04:59;;;;;;;7.53;4.28;;;;;;;10.30;nan;99640.38;4924278;29;20441;-84
2021/11/01 17:07:38;;;;;;;7.97;4.30;;;;;;;10.28;nan;99635.16;4918009;29;20055;-84
2021/11/01 17:24:09;;;;;;;7.85;4.68;;;;;;;10.27;nan;99619.41;4937199;28;20036;-80
2021/11/01 17:27:10;;;;;;;8.43;4.45;;;;;;;10.29;nan;99621.06;4931533;29;20065;-81
2021/11/01 17:29:45;;;;;;;6.10;4.03;;;;;;;10.23;nan;99628.31;4927481;29;20415;-85
2021/11/01 17:34:45;;;;;;;6.38;3.83;;;;;;;10.16;nan;99625.84;4925947;29;20577;-80
2021/11/01 18:40:00;;;;;;;6.35;4.03;;;;;;;9.95;nan;99631.03;4924049;29;20035;-82
2021/11/01 18:53:08;;;;;;;7.72;3.80;;;;;;;10.00;nan;99634.38;4937469;29;20102;-81
2021/11/01 18:55:37;;;;;;;6.22;3.78;;;;;;;9.99;nan;99627.38;4920728;28;20041;-82
2021/11/01 18:58:06;;;;;;;6.70;4.22;;;;;;;9.92;nan;99623.22;4917839;28;20036;-83
2021/11/01 19:00:42;;;;;;;7.22;3.92;;;;;;;9.95;nan;99626.63;4905969;29;20140;-82
2021/11/01 19:03:13;;;;;;;6.85;3.72;;;;;;;9.98;nan;99628.28;4901318;29;20070;-81
2021/11/01 19:05:54;;;;;;;7.85;3.88;;;;;;;10.09;nan;99632.28;4915561;29;20765;-81
2021/11/01 19:11:25;;;;;;;5.00;3.95;;;;;;;9.92;nan;99628.47;4932199;29;20055;-81
2021/11/01 20:12:19;;;;;;;6.38;3.38;;;;;;;9.52;nan;99643.88;4921932;29;20043;-82
2021/11/01 21:24:49;;;;;;;3.83;1.90;;;;;;;9.15;nan;99609.91;4921479;29;20781;-81
2021/11/01 21:27:20;;;;;;;3.88;2.40;;;;;;;9.12;nan;99602.13;4911153;29;20035;-81
2021/11/01 21:29:48;;;;;;;5.78;2.22;;;;;;;9.15;nan;99615.19;4917885;29;20035;-82
2021/11/01 21:32:15;;;;;;;3.90;2.33;;;;;;;9.13;nan;99611.72;4914945;29;20042;-82
2021/11/01 21:34:53;;;;;;;3.72;2.30;;;;;;;9.11;nan;99615.34;4917369;29;20043;-82
2021/11/01 21:37:21;;;;;;;4.30;2.35;;;;;;;9.09;nan;99615.41;4920429;29;20035;-82
2021/11/01 21:39:48;;;;;;;3.45;2.05;;;;;;;9.07;nan;99618.97;4929746;28;20123;-82
2021/11/01 21:42:16;;;;;;;4.28;2.13;;;;;;;9.11;nan;99604.81;4917179;28;20036;-82
2021/11/01 21:44:42;;;;;;;3.00;2.40;;;;;;;9.11;nan;99597.75;4937408;29;20535;-82
2021/11/01 21:47:09;;;;;;;3.47;2.20;;;;;;;9.07;nan;99604.00;4914332;29;20050;-82
2021/11/01 21:49:36;;;;;;;6.10;2.60;;;;;;;9.10;nan;99600.44;4899211;29;20035;-82
2021/11/01 21:52:04;;;;;;;5.50;2.63;;;;;;;9.13;nan;99588.03;4925723;28;20042;-81
2021/11/01 21:54:42;;;;;;;3.25;2.38;;;;;;;9.10;nan;99597.81;4923088;29;20505;-82
2021/11/01 21:57:20;;;;;;;3.28;2.15;;;;;;;9.03;nan;99592.72;4924023;29;20501;-82
2021/11/01 22:19:04;;;;;;;3.10;2.25;;;;;;;8.92;nan;99578.16;4924108;28;20040;-82
2021/11/01 22:21:44;;;;;;;5.57;3.10;;;;;;;8.90;nan;99577.34;4940811;28;20050;-82
2021/11/01 22:27:09;;;;;;;4.63;3.42;;;;;;;8.93;nan;99577.25;4926523;29;20038;-82
2021/11/01 22:32:54;;;;;;;4.38;2.67;;;;;;;8.82;nan;99579.34;4930620;29;20043;-82
2021/11/01 22:38:21;;;;;;;3.63;2.50;;;;;;;8.81;nan;99575.84;4921849;29;20043;-81
2021/11/01 22:40:57;;;;;;;;;;;;;;;8.76;nan;99575.16;4925008;29;20027;-81
2021/11/01 22:44:09;;;;;;;4.60;2.83;;;;;;;8.81;nan;99575.84;4927881;29;21737;-82
2021/11/01 22:46:56;;;;;;;5.93;2.83;;;;;;;8.78;nan;99573.31;4919383;29;20050;-82
2021/11/01 22:57:42;;;;;;;5.90;3.28;;;;;;;8.73;nan;99570.81;4926952;29;20043;-82
2021/11/01 23:00:19;;;;;;;4.97;3.42;;;;;;;8.71;nan;99566.50;4918112;29;20031;-82
2021/11/01 23:02:50;;;;;;;4.15;2.92;;;;;;;8.73;nan;99567.31;4904161;29;20046;-81
2021/11/01 23:05:33;;;;;;;4.85;2.75;;;;;;;8.73;nan;99555.00;4913254;29;20062;-81
2021/11/01 23:32:55;;;;;;;6.20;3.47;;;;;;;8.79;nan;99532.03;4938758;29;20054;-81
2021/11/01 23:35:22;;;;;;;4.82;3.63;;;;;;;8.73;nan;99528.69;4917620;29;20039;-81
2021/11/01 23:37:49;;;;;;;7.03;3.65;;;;;;;8.72;nan;99532.22;4904885;29;20497;-81
2021/11/01 23:40:16;;;;;;;6.47;4.22;;;;;;;8.78;nan;99528.53;4930751;29;20039;-81
2021/11/01 23:42:43;;;;;;;7.22;3.85;;;;;;;8.71;nan;99524.38;4895924;29;20417;-81
2021/11/01 23:45:10;;;;;;;5.20;3.40;;;;;;;8.68;nan;99530.59;4916822;29;20624;-81
2021/11/01 23:47:37;;;;;;;7.18;3.63;;;;;;;8.68;nan;99522.72;4929688;29;20051;-81